Main page
METAR-TAF:

METAR-TAF

Airports :

Yasuj, Iran

Yasuj Airport

latitude: 30-41-49N, longitude: 051-33E, elevation: 1825 m

Current weather observation

The report was made 1 hour and 1 minutes ago, at 01:00 UTC
Calm wind
Temperature 20°C
Humidity 21%
Pressure 1015 hPa
Visibility 10 km or more
no clouds below 1500 m and no cumulonimbus

METAR: OISY 290100Z 00000KT CAVOK 20/M03 Q1015

Time: 06:31 (02:01 UTC)


TAF: missing

Weather observations and forecasts of more than 4000 airports (METAR and TAF reports).

The available stations are represented by yellow and red dots on the map.

Hover mouse over dot to see the name of the station.

Then click to see weather observations and forecasts.

To change the map : click on the green buttons with a black cross to zoom in, on the green button with a dash to zoom out, or on the green arrows for adjacent maps.


METAR-TAF: